Time;durP1;ratioP1;P1;durP2;ratioP2;P2;SDS_P1;SDS_P2;PMS_P1;PMS_P2;Temp;Humidity;BMP_temperature;BMP_pressure;BME280_temperature;BME280_humidity;BME280_pressure;Samples;Min_cycle;Max_cycle;Signal;HPM_P1;HPM_P2
2022/09/18 00:01:14;;;;;;;;;;;;;;;9.32;100.00;101356.78;5055493;28;20417;-72
2022/09/18 00:03:40;;;;;;;;;;;;;;;9.37;100.00;101350.41;5054872;28;20031;-73
2022/09/18 00:06:10;;;;;;;;;;;;;;;9.48;100.00;101354.50;5054659;28;19930;-73
2022/09/18 00:08:37;;;;;;;;;;;;;;;9.57;100.00;101351.53;5055914;28;20044;-73
2022/09/18 00:11:06;;;;;;;;;;;;;;;9.65;100.00;101348.66;5055337;28;20395;-72
2022/09/18 00:13:32;;;;;;;;;;;;;;;9.71;100.00;101343.16;5055742;28;19928;-72
2022/09/18 00:15:58;;;;;;;;;;;;;;;9.74;100.00;101339.53;5036785;28;19932;-72
2022/09/18 00:18:23;;;;;;;;;;;;;;;9.76;100.00;101343.00;5056743;28;19935;-73
2022/09/18 00:20:49;;;;;;;;;;;;;;;9.76;100.00;101345.66;5057334;28;20573;-73
2022/09/18 00:23:14;;;;;;;;;;;;;;;9.76;100.00;101345.66;5037187;28;19982;-72
2022/09/18 00:25:40;;;;;;;;;;;;;;;9.75;100.00;101350.06;5056224;28;19924;-72
2022/09/18 00:28:05;;;;;;;;;;;;;;;9.75;100.00;101346.56;5046762;28;20027;-73
2022/09/18 00:30:31;;;;;;;;;;;;;;;9.75;100.00;101339.47;5054106;28;19929;-73
2022/09/18 00:32:56;;;;;;;;;;;;;;;9.75;100.00;101339.47;5045705;28;19928;-72
2022/09/18 00:35:22;;;;;;;;;;;;;;;9.78;100.00;101338.53;5056273;28;19924;-72
2022/09/18 00:37:47;;;;;;;;;;;;;;;9.79;100.00;101345.53;5054599;28;19979;-73
2022/09/18 00:40:14;;;;;;;;;;;;;;;9.80;100.00;101331.38;5062702;28;19929;-73
2022/09/18 00:42:39;;;;;;;;;;;;;;;9.82;100.00;101340.16;5054362;28;20297;-72
2022/09/18 00:45:05;;;;;;;;;;;;;;;9.85;100.00;101339.16;5029613;28;19937;-72
2022/09/18 00:47:43;;;;;;;;;;;;;;;9.87;100.00;101347.94;5056666;28;20134;-72
2022/09/18 00:50:12;;;;;;;;;;;;;;;9.89;100.00;101344.31;5056385;28;20359;-72
2022/09/18 00:52:40;;;;;;;;;;;;;;;9.91;100.00;101344.25;5054394;28;19951;-72
2022/09/18 00:55:07;;;;;;;;;;;;;;;9.93;100.00;101350.34;5056527;28;20387;-72
2022/09/18 00:57:33;;;;;;;;;;;;;;;9.96;100.00;101354.69;5055929;28;19948;-72
2022/09/18 00:59:59;;;;;;;;;;;;;;;9.97;100.00;101359.91;5036707;28;20370;-72
2022/09/18 01:02:24;;;;;;;;;;;;;;;10.00;100.00;101354.50;5037870;28;19975;-73
2022/09/18 01:04:50;;;;;;;;;;;;;;;10.01;100.00;101350.06;5039856;28;19932;-73
2022/09/18 01:07:18;;;;;;;;;;;;;;;10.02;100.00;101357.13;5055676;28;20883;-73
2022/09/18 01:09:44;;;;;;;;;;;;;;;10.01;100.00;101350.94;5055670;28;20027;-72
2022/09/18 01:12:09;;;;;;;;;;;;;;;10.00;100.00;101348.34;5055144;28;20417;-72
2022/09/18 01:14:56;;;;;;;;;;;;;;;9.99;100.00;101349.28;5054477;28;19979;-73
2022/09/18 01:17:40;;;;;;;;;;;;;;;9.98;100.00;101344.91;5054499;28;19987;-72
2022/09/18 01:20:06;;;;;;;;;;;;;;;9.95;100.00;101343.22;5057329;28;20327;-73
2022/09/18 01:22:31;;;;;;;;;;;;;;;9.92;100.00;101346.84;5053068;28;19936;-72
2022/09/18 01:25:17;;;;;;;;;;;;;;;9.89;100.00;101344.31;5054121;28;19924;-73
2022/09/18 01:27:48;;;;;;;;;;;;;;;9.88;100.00;101352.28;5053833;28;19936;-73
2022/09/18 01:30:14;;;;;;;;;;;;;;;9.87;100.00;101347.94;5070693;28;19974;-73
2022/09/18 01:32:46;;;;;;;;;;;;;;;9.85;100.00;101341.81;5054922;28;20067;-74
2022/09/18 01:35:16;;;;;;;;;;;;;;;9.84;100.00;101354.19;5053905;28;19924;-73
2022/09/18 01:37:52;;;;;;;;;;;;;;;9.84;100.00;101350.66;5049636;28;19925;-73
2022/09/18 01:40:18;;;;;;;;;;;;;;;9.84;100.00;101348.00;5054370;28;19924;-73
2022/09/18 01:42:43;;;;;;;;;;;;;;;9.83;100.00;101341.00;5053731;28;19979;-73
2022/09/18 01:45:10;;;;;;;;;;;;;;;9.82;100.00;101339.28;5053748;28;20010;-73
2022/09/18 01:47:37;;;;;;;;;;;;;;;9.83;100.00;101331.31;5052465;28;20414;-73
2022/09/18 01:50:03;;;;;;;;;;;;;;;9.84;100.00;101338.31;5038412;28;19990;-73
2022/09/18 01:52:30;;;;;;;;;;;;;;;9.84;100.00;101338.31;5051443;28;20035;-73
2022/09/18 01:54:56;;;;;;;;;;;;;;;9.85;100.00;101333.88;5053537;28;19924;-74
2022/09/18 01:57:32;;;;;;;;;;;;;;;9.84;100.00;101340.97;5053013;28;19967;-74
2022/09/18 02:00:05;;;;;;;;;;;;;;;9.83;100.00;101347.16;5053192;28;20365;-74
2022/09/18 02:02:39;;;;;;;;;;;;;;;9.83;100.00;101344.53;5053111;28;19951;-73
2022/09/18 02:05:06;;;;;;;;;;;;;;;9.84;100.00;101348.00;5052994;28;20319;-74
2022/09/18 02:07:40;;;;;;;;;;;;;;;9.83;100.00;101354.22;5052827;28;19974;-73
2022/09/18 02:10:07;;;;;;;;;;;;;;;9.84;100.00;101337.44;5053238;28;19931;-74
2022/09/18 02:12:32;;;;;;;;;;;;;;;9.81;100.00;101335.75;5051626;28;19982;-73
2022/09/18 02:14:58;;;;;;;;;;;;;;;9.78;100.00;101338.53;5053448;28;19932;-73
2022/09/18 02:17:25;;;;;;;;;;;;;;;9.74;100.00;101331.59;5045969;28;19928;-73
2022/09/18 02:19:52;;;;;;;;;;;;;;;9.73;100.00;101328.09;5054254;28;20461;-73
2022/09/18 02:22:18;;;;;;;;;;;;;;;9.72;100.00;101322.88;5053742;28;19920;-73
2022/09/18 02:24:44;;;;;;;;;;;;;;;9.71;100.00;101324.66;5052685;28;20383;-73
2022/09/18 02:27:10;;;;;;;;;;;;;;;9.71;100.00;101321.13;5051685;28;19963;-73
2022/09/18 02:29:36;;;;;;;;;;;;;;;9.71;100.00;101329.06;5052700;28;19936;-74
2022/09/18 02:32:01;;;;;;;;;;;;;;;9.70;100.00;101320.25;5051732;28;19971;-73
2022/09/18 02:34:27;;;;;;;;;;;;;;;9.71;100.00;101331.72;5036300;28;20398;-72
2022/09/18 02:36:55;;;;;;;;;;;;;;;9.73;100.00;101324.59;5028494;28;19932;-73
2022/09/18 02:39:40;;;;;;;;;;;;;;;9.73;100.00;101319.28;5053982;28;20430;-73
2022/09/18 02:42:05;;;;;;;;;;;;;;;9.74;100.00;101315.72;5051654;28;19924;-73
2022/09/18 02:44:34;;;;;;;;;;;;;;;9.74;100.00;101311.31;5053102;28;20718;-73
2022/09/18 02:47:01;;;;;;;;;;;;;;;9.76;100.00;101321.84;5053693;28;19924;-73
2022/09/18 02:49:45;;;;;;;;;;;;;;;9.75;100.00;101328.91;5051959;28;19932;-73
2022/09/18 02:52:15;;;;;;;;;;;;;;;9.76;100.00;101327.97;5055388;28;19925;-74
2022/09/18 02:54:43;;;;;;;;;;;;;;;9.77;100.00;101323.56;5052716;28;20791;-73
2022/09/18 02:57:19;;;;;;;;;;;;;;;9.78;100.00;101336.75;5034737;28;19929;-74
2022/09/18 02:59:46;;;;;;;;;;;;;;;9.77;100.00;101326.22;5053332;28;19960;-72
2022/09/18 03:02:12;;;;;;;;;;;;;;;9.74;100.00;101321.03;5051598;28;20535;-72
2022/09/18 03:04:37;;;;;;;;;;;;;;;9.73;100.00;101314.88;5050572;28;20031;-72
2022/09/18 03:07:03;;;;;;;;;;;;;;;9.72;100.00;101314.94;5052487;28;19928;-73
2022/09/18 03:09:33;;;;;;;;;;;;;;;9.71;100.00;101318.50;5051771;28;19930;-73
2022/09/18 03:12:02;;;;;;;;;;;;;;;9.70;100.00;101308.84;5051303;28;20368;-73
2022/09/18 03:14:27;;;;;;;;;;;;;;;9.70;100.00;101303.56;5053563;28;20016;-72
2022/09/18 03:16:52;;;;;;;;;;;;;;;9.68;100.00;101300.06;5054160;28;19934;-73
2022/09/18 03:19:18;;;;;;;;;;;;;;;9.68;100.00;101306.25;5052414;28;19928;-73
2022/09/18 03:21:44;;;;;;;;;;;;;;;9.69;100.00;101307.13;5056611;28;19997;-72
2022/09/18 03:24:10;;;;;;;;;;;;;;;9.68;100.00;101298.31;5053823;28;19938;-73
2022/09/18 03:26:35;;;;;;;;;;;;;;;9.67;100.00;101296.59;5042652;28;20703;-72
2022/09/18 03:29:01;;;;;;;;;;;;;;;9.68;100.00;101300.06;5056326;28;19934;-73
2022/09/18 03:31:26;;;;;;;;;;;;;;;9.68;100.00;101306.25;5057811;28;20466;-72
2022/09/18 03:33:51;;;;;;;;;;;;;;;9.67;100.00;101293.94;5054244;28;19932;-72
2022/09/18 03:36:17;;;;;;;;;;;;;;;9.68;100.00;101294.78;5056714;28;20516;-72
2022/09/18 03:38:42;;;;;;;;;;;;;;;9.68;100.00;101294.78;5055932;28;21437;-72
2022/09/18 03:41:08;;;;;;;;;;;;;;;9.69;100.00;101293.91;5038007;28;19932;-72
2022/09/18 03:43:33;;;;;;;;;;;;;;;9.71;100.00;101297.34;5029699;28;20013;-72
2022/09/18 03:45:59;;;;;;;;;;;;;;;9.71;100.00;101286.78;5054274;28;20001;-72
2022/09/18 03:48:25;;;;;;;;;;;;;;;9.71;100.00;101285.00;5054617;28;19932;-73
2022/09/18 03:50:50;;;;;;;;;;;;;;;9.73;100.00;101282.28;5055585;28;19981;-72
2022/09/18 03:53:16;;;;;;;;;;;;;;;9.72;100.00;101283.19;5056206;28;19936;-72
2022/09/18 03:55:41;;;;;;;;;;;;;;;9.73;100.00;101284.91;5057105;28;19932;-72
2022/09/18 03:58:06;;;;;;;;;;;;;;;9.71;100.00;101285.00;5054286;28;19934;-72
2022/09/18 04:00:32;;;;;;;;;;;;;;;9.70;100.00;101287.69;5055907;28;19933;-73
2022/09/18 04:02:57;;;;;;;;;;;;;;;9.70;100.00;101285.03;5037568;28;19934;-72
2022/09/18 04:05:23;;;;;;;;;;;;;;;9.68;100.00;101292.13;5055993;28;20342;-73
2022/09/18 04:07:48;;;;;;;;;;;;;;;9.68;100.00;101298.31;5054657;28;19929;-73
2022/09/18 04:10:14;;;;;;;;;;;;;;;9.68;100.00;101305.34;5054975;28;19990;-72
2022/09/18 04:12:39;;;;;;;;;;;;;;;9.69;100.00;101312.41;5055118;28;19932;-73
2022/09/18 04:15:05;;;;;;;;;;;;;;;9.70;100.00;101293.81;5054875;28;19928;-72
2022/09/18 04:17:30;;;;;;;;;;;;;;;9.69;100.00;101281.53;5055393;28;19936;-73
2022/09/18 04:19:56;;;;;;;;;;;;;;;9.67;100.00;101279.84;5058337;28;19928;-72
2022/09/18 04:22:21;;;;;;;;;;;;;;;9.64;100.00;101279.03;5037200;28;19939;-72
2022/09/18 04:24:47;;;;;;;;;;;;;;;9.61;100.00;101281.81;5052232;28;20378;-72
2022/09/18 04:27:12;;;;;;;;;;;;;;;9.60;100.00;101281.84;5053343;28;19985;-72
2022/09/18 04:29:37;;;;;;;;;;;;;;;9.58;100.00;101281.91;5056234;28;19929;-72
2022/09/18 04:32:04;;;;;;;;;;;;;;;9.57;100.00;101280.19;5053278;28;20264;-72
2022/09/18 04:34:29;;;;;;;;;;;;;;;9.55;100.00;101281.13;5054549;28;19925;-72
2022/09/18 04:36:57;;;;;;;;;;;;;;;9.54;100.00;101277.66;5056725;28;19936;-73
2022/09/18 04:39:23;;;;;;;;;;;;;;;9.53;100.00;101270.59;5055362;28;19929;-73
2022/09/18 04:41:49;;;;;;;;;;;;;;;9.52;100.00;101271.53;5036825;28;19932;-73
2022/09/18 04:44:14;;;;;;;;;;;;;;;9.50;100.00;101270.72;5054772;28;20387;-73
2022/09/18 04:46:41;;;;;;;;;;;;;;;9.49;100.00;101274.28;5054359;28;20219;-72
2022/09/18 04:49:07;;;;;;;;;;;;;;;9.47;100.00;101268.19;5054831;28;20407;-73
2022/09/18 04:51:33;;;;;;;;;;;;;;;9.47;100.00;101268.19;5055939;28;19932;-73
2022/09/18 04:53:58;;;;;;;;;;;;;;;9.48;100.00;101260.19;5057041;28;20283;-72
2022/09/18 04:56:23;;;;;;;;;;;;;;;9.49;100.00;101256.63;5055082;28;19986;-72
2022/09/18 04:58:49;;;;;;;;;;;;;;;9.50;100.00;101266.28;5055956;28;19933;-73
2022/09/18 05:01:15;;;;;;;;;;;;;;;9.51;100.00;101261.88;5039173;28;20305;-73
2022/09/18 05:03:41;;;;;;;;;;;;;;;9.53;100.00;101261.84;5054642;28;19924;-74
2022/09/18 05:06:06;;;;;;;;;;;;;;;9.53;100.00;101260.03;5054499;28;19932;-72
2022/09/18 05:08:33;;;;;;;;;;;;;;;9.54;100.00;101264.44;5056664;28;19964;-72
2022/09/18 05:10:59;;;;;;;;;;;;;;;9.55;100.00;101263.50;5054878;28;19928;-72
2022/09/18 05:13:24;;;;;;;;;;;;;;;9.54;100.00;101264.44;5053754;28;19935;-72
2022/09/18 05:15:53;;;;;;;;;;;;;;;9.55;100.00;101260.00;5055768;28;20021;-72
2022/09/18 05:18:18;;;;;;;;;;;;;;;9.55;100.00;101273.22;5056719;28;19956;-72
2022/09/18 05:20:44;;;;;;;;;;;;;;;9.56;100.00;101291.66;5057169;28;20023;-72
2022/09/18 05:23:09;;;;;;;;;;;;;;;9.54;100.00;101285.59;5057326;28;19982;-72
2022/09/18 05:25:35;;;;;;;;;;;;;;;9.55;100.00;101282.00;5053335;28;19963;-73
2022/09/18 05:28:01;;;;;;;;;;;;;;;9.55;100.00;101291.72;5054086;28;20367;-72
2022/09/18 05:30:27;;;;;;;;;;;;;;;9.55;100.00;101289.94;5056798;28;19928;-73
2022/09/18 05:33:00;;;;;;;;;;;;;;;9.54;100.00;101288.22;5054519;28;19950;-73
2022/09/18 05:35:26;;;;;;;;;;;;;;;9.53;100.00;101280.34;5054821;28;19935;-72
2022/09/18 05:37:52;;;;;;;;;;;;;;;9.51;100.00;101283.91;5054774;28;19928;-73
2022/09/18 05:40:18;;;;;;;;;;;;;;;9.51;100.00;101283.03;5053337;28;20050;-73
2022/09/18 05:42:47;;;;;;;;;;;;;;;9.49;100.00;101280.41;5053416;28;19924;-73
2022/09/18 05:45:13;;;;;;;;;;;;;;;9.48;100.00;101283.16;5055439;28;19940;-73
2022/09/18 05:47:38;;;;;;;;;;;;;;;9.48;100.00;101294.56;5055626;28;19943;-73
2022/09/18 05:50:04;;;;;;;;;;;;;;;9.47;100.00;101281.38;5038066;28;20401;-73
2022/09/18 05:52:29;;;;;;;;;;;;;;;9.48;100.00;101285.78;5055511;28;19937;-73
2022/09/18 05:54:55;;;;;;;;;;;;;;;9.46;100.00;101280.53;5055200;28;19932;-73
2022/09/18 05:57:20;;;;;;;;;;;;;;;9.47;100.00;101291.97;5055386;28;19928;-73
2022/09/18 05:59:46;;;;;;;;;;;;;;;9.46;100.00;101277.91;5055952;28;20353;-73
2022/09/18 06:02:11;;;;;;;;;;;;;;;9.49;100.00;101290.16;5055550;28;19928;-73
2022/09/18 06:04:36;;;;;;;;;;;;;;;9.48;100.00;101277.84;5055096;28;20448;-73
2022/09/18 06:07:02;;;;;;;;;;;;;;;9.49;100.00;101283.06;5054516;28;20379;-73
2022/09/18 06:09:27;;;;;;;;;;;;;;;9.50;100.00;101279.50;5053163;28;20426;-73
2022/09/18 06:11:53;;;;;;;;;;;;;;;9.50;100.00;101281.31;5053762;28;20047;-73
2022/09/18 06:14:18;;;;;;;;;;;;;;;9.50;100.00;101287.44;5053733;28;20513;-73
2022/09/18 06:16:43;;;;;;;;;;;;;;;9.50;100.00;101284.78;5053933;28;20518;-73
2022/09/18 06:19:09;;;;;;;;;;;;;;;9.53;100.00;101275.06;5055104;28;19963;-73
2022/09/18 06:21:34;;;;;;;;;;;;;;;9.51;100.00;101275.97;5056594;28;19932;-73
2022/09/18 06:24:00;;;;;;;;;;;;;;;9.53;100.00;101270.59;5055149;28;19943;-73
2022/09/18 06:26:25;;;;;;;;;;;;;;;9.54;100.00;101276.78;5042919;28;20076;-73
2022/09/18 06:28:50;;;;;;;;;;;;;;;9.54;100.00;101272.38;5055709;28;20699;-72
2022/09/18 06:31:16;;;;;;;;;;;;;;;9.54;100.00;101275.00;5055523;28;19929;-72
2022/09/18 06:33:41;;;;;;;;;;;;;;;9.56;100.00;101274.94;5056344;28;19936;-73
2022/09/18 06:36:12;;;;;;;;;;;;;;;9.56;100.00;101264.34;5055614;28;19928;-73
2022/09/18 06:38:38;;;;;;;;;;;;;;;9.57;100.00;101271.38;5052914;28;20402;-73
2022/09/18 06:41:03;;;;;;;;;;;;;;;9.57;100.00;101269.59;5037605;28;19924;-73
2022/09/18 06:43:29;;;;;;;;;;;;;;;9.57;100.00;101277.53;5055183;28;20608;-73
2022/09/18 06:45:55;;;;;;;;;;;;;;;9.56;100.00;101269.66;5054939;28;19937;-73
2022/09/18 06:48:21;;;;;;;;;;;;;;;9.55;100.00;101270.56;5071593;28;20300;-73
2022/09/18 06:50:50;;;;;;;;;;;;;;;9.49;100.00;101269.84;5055260;28;20005;-73
2022/09/18 06:53:16;;;;;;;;;;;;;;;9.44;100.00;101273.56;5054788;28;20330;-72
2022/09/18 06:55:41;;;;;;;;;;;;;;;9.36;100.00;101269.41;5057762;28;19936;-73
2022/09/18 06:58:06;;;;;;;;;;;;;;;9.31;100.00;101266.06;5058943;28;19925;-73
2022/09/18 07:00:32;;;;;;;;;;;;;;;9.26;100.00;101278.53;5060238;28;19924;-73
2022/09/18 07:02:58;;;;;;;;;;;;;;;9.22;100.00;101264.56;5060463;28;20025;-72
2022/09/18 07:05:24;;;;;;;;;;;;;;;9.18;100.00;101284.09;5046049;28;19931;-72
2022/09/18 07:07:50;;;;;;;;;;;;;;;9.17;100.00;101300.00;5057161;28;19928;-72
2022/09/18 07:10:15;;;;;;;;;;;;;;;9.13;100.00;101298.34;5059849;28;20307;-72
2022/09/18 07:12:41;;;;;;;;;;;;;;;9.10;100.00;101305.47;5057033;28;19967;-72
2022/09/18 07:15:06;;;;;;;;;;;;;;;9.09;100.00;101300.22;5057340;28;19939;-72
2022/09/18 07:17:32;;;;;;;;;;;;;;;9.09;100.00;101297.59;5059161;27;19931;-72
2022/09/18 07:19:57;;;;;;;;;;;;;;;9.08;100.00;101296.75;5058732;28;19989;-72
2022/09/18 07:22:23;;;;;;;;;;;;;;;9.13;100.00;101303.63;5058806;28;19930;-73
2022/09/18 07:24:48;;;;;;;;;;;;;;;9.14;100.00;101284.25;5059330;28;20088;-72
2022/09/18 07:27:13;;;;;;;;;;;;;;;9.17;100.00;101277.09;5057204;28;19939;-72
2022/09/18 07:29:39;;;;;;;;;;;;;;;9.19;100.00;101277.91;5057914;28;19958;-72
2022/09/18 07:32:04;;;;;;;;;;;;;;;9.21;100.00;101275.22;5058925;28;19933;-72
2022/09/18 07:34:30;;;;;;;;;;;;;;;9.21;100.00;101278.69;5060119;28;19929;-72
2022/09/18 07:36:55;;;;;;;;;;;;;;;9.23;100.00;101286.59;5058106;28;19963;-72
2022/09/18 07:39:21;;;;;;;;;;;;;;;9.26;100.00;101283.84;5058856;28;19936;-72
2022/09/18 07:41:46;;;;;;;;;;;;;;;9.30;100.00;101300.44;5058216;28;20316;-72
2022/09/18 07:44:14;;;;;;;;;;;;;;;9.32;100.00;101290.72;5057570;28;19970;-73
2022/09/18 07:46:39;;;;;;;;;;;;;;;9.35;100.00;101293.25;5058820;28;20013;-73
2022/09/18 07:49:05;;;;;;;;;;;;;;;9.37;100.00;101278.19;5059084;28;19933;-73
2022/09/18 07:51:30;;;;;;;;;;;;;;;9.38;100.00;101275.50;5058386;28;19928;-72
2022/09/18 07:53:55;;;;;;;;;;;;;;;9.40;100.00;101267.53;5056802;28;19928;-72
2022/09/18 07:56:21;;;;;;;;;;;;;;;9.44;100.00;101257.72;5057381;28;19932;-73
2022/09/18 07:58:46;;;;;;;;;;;;;;;9.45;100.00;101264.72;5058376;28;21525;-73
2022/09/18 08:01:12;;;;;;;;;;;;;;;9.48;100.00;101262.84;5055208;28;19934;-72
2022/09/18 08:03:37;;;;;;;;;;;;;;;9.50;100.00;101257.50;5055770;28;20011;-73
2022/09/18 08:06:03;;;;;;;;;;;;;;;9.53;100.00;101260.03;5055923;28;19924;-72
2022/09/18 08:08:29;;;;;;;;;;;;;;;9.55;100.00;101258.22;5057614;28;19928;-72
2022/09/18 08:10:55;;;;;;;;;;;;;;;9.56;100.00;101262.59;5056505;28;20077;-73
2022/09/18 08:13:20;;;;;;;;;;;;;;;9.61;100.00;101259.78;5055083;28;19928;-71
2022/09/18 08:15:45;;;;;;;;;;;;;;;9.64;100.00;101252.59;5054641;28;19993;-72
2022/09/18 08:18:11;;;;;;;;;;;;;;;9.69;100.00;101259.53;5056072;28;19940;-73
2022/09/18 08:20:36;;;;;;;;;;;;;;;9.71;100.00;101257.69;5056216;28;20031;-72
2022/09/18 08:23:03;;;;;;;;;;;;;;;9.74;100.00;101265.50;5038443;28;19928;-72
2022/09/18 08:25:29;;;;;;;;;;;;;;;9.78;100.00;101270.66;5054737;28;19955;-72
2022/09/18 08:27:57;;;;;;;;;;;;;;;9.83;100.00;101272.25;5058234;28;19967;-73
2022/09/18 08:30:22;;;;;;;;;;;;;;;9.87;100.00;101269.44;5056886;28;19924;-72
2022/09/18 08:32:48;;;;;;;;;;;;;;;9.90;100.00;101268.47;5056860;28;19929;-73
2022/09/18 08:35:14;;;;;;;;;;;;;;;9.95;100.00;101270.94;5057812;28;19929;-73
2022/09/18 08:37:45;;;;;;;;;;;;;;;9.98;100.00;101276.13;5056647;28;19935;-73
2022/09/18 08:40:12;;;;;;;;;;;;;;;10.01;100.00;101281.28;5057169;28;19990;-74
2022/09/18 08:42:40;;;;;;;;;;;;;;;10.00;100.00;101279.56;5056084;28;19928;-74
2022/09/18 08:45:10;;;;;;;;;;;;;;;9.96;100.00;101283.28;5056312;28;19929;-73
2022/09/18 08:47:37;;;;;;;;;;;;;;;9.93;100.00;101286.88;5054666;28;19938;-73
2022/09/18 08:50:03;;;;;;;;;;;;;;;9.92;100.00;101278.06;5056923;28;20752;-73
2022/09/18 08:52:30;;;;;;;;;;;;;;;9.94;100.00;101295.66;5055564;28;19928;-73
2022/09/18 08:54:59;;;;;;;;;;;;;;;9.96;100.00;101294.69;5054536;28;20261;-74
2022/09/18 08:57:26;;;;;;;;;;;;;;;10.00;100.00;101291.03;5056956;28;19986;-73
2022/09/18 08:59:53;;;;;;;;;;;;;;;10.04;100.00;101292.63;5055331;28;19928;-73
2022/09/18 09:02:38;;;;;;;;;;;;;;;10.10;100.00;101296.84;5071951;28;19963;-73
2022/09/18 09:05:12;;;;;;;;;;;;;;;10.16;100.00;101295.75;5054916;28;19925;-74
2022/09/18 09:07:52;;;;;;;;;;;;;;;10.15;100.00;101288.75;5054350;28;19935;-74
2022/09/18 09:10:30;;;;;;;;;;;;;;;10.16;100.00;101294.00;5056285;28;19931;-73
2022/09/18 09:13:14;;;;;;;;;;;;;;;10.19;100.00;101283.28;5056423;28;19935;-74
2022/09/18 09:15:46;;;;;;;;;;;;;;;10.19;100.00;101288.56;5056341;28;19980;-74
2022/09/18 09:18:16;;;;;;;;;;;;;;;10.19;100.00;101285.94;5037712;28;20395;-74
2022/09/18 09:20:54;;;;;;;;;;;;;;;10.19;100.00;101296.50;5054595;28;19928;-74
2022/09/18 09:23:40;;;;;;;;;;;;;;;10.19;100.00;101280.63;5058004;28;19924;-74
2022/09/18 09:26:07;;;;;;;;;;;;;;;10.16;100.00;101280.75;5054831;28;19928;-73
2022/09/18 09:28:36;;;;;;;;;;;;;;;10.13;100.00;101270.28;5053247;28;20395;-73
2022/09/18 09:31:02;;;;;;;;;;;;;;;10.11;100.00;101280.06;5072430;28;19934;-73
2022/09/18 09:33:31;;;;;;;;;;;;;;;10.07;100.00;101289.00;5055491;28;19924;-74
2022/09/18 09:36:01;;;;;;;;;;;;;;;10.02;100.00;101285.69;5054746;28;19956;-73
2022/09/18 09:38:32;;;;;;;;;;;;;;;10.00;100.00;101284.88;5054406;28;19931;-74
2022/09/18 09:40:59;;;;;;;;;;;;;;;10.01;100.00;101283.94;5054092;28;19932;-73
2022/09/18 09:43:29;;;;;;;;;;;;;;;10.01;100.00;101283.94;5054037;28;19956;-74
2022/09/18 09:45:55;;;;;;;;;;;;;;;10.00;100.00;101287.50;5055551;28;20019;-73
2022/09/18 09:48:53;;;;;;;;;;;;;;;9.99;100.00;101284.03;5038117;28;20345;-73
2022/09/18 09:51:25;;;;;;;;;;;;;;;9.98;100.00;101276.13;5034250;28;19938;-73
2022/09/18 09:53:54;;;;;;;;;;;;;;;10.00;100.00;101284.88;5054951;28;20194;-74
2022/09/18 09:56:29;;;;;;;;;;;;;;;10.01;100.00;101289.22;5053485;28;19925;-74
2022/09/18 09:59:13;;;;;;;;;;;;;;;10.01;100.00;101281.28;5055100;28;20417;-73
2022/09/18 10:01:44;;;;;;;;;;;;;;;10.01;100.00;101281.28;5053653;28;19924;-74
2022/09/18 10:04:25;;;;;;;;;;;;;;;10.02;100.00;101288.34;5054586;28;20306;-74
2022/09/18 10:06:59;;;;;;;;;;;;;;;10.04;100.00;101287.34;5054114;28;19924;-74
2022/09/18 10:09:54;;;;;;;;;;;;;;;10.07;100.00;101285.53;5055310;28;19924;-73
2022/09/18 10:12:27;;;;;;;;;;;;;;;10.09;100.00;101289.84;5017698;28;19929;-74
2022/09/18 10:14:53;;;;;;;;;;;;;;;10.12;100.00;101278.25;5055116;28;21234;-73
2022/09/18 10:17:19;;;;;;;;;;;;;;;10.10;100.00;101280.97;5053772;28;19924;-73
2022/09/18 10:19:44;;;;;;;;;;;;;;;10.10;100.00;101280.09;5038343;28;19936;-73
2022/09/18 10:22:10;;;;;;;;;;;;;;;10.12;100.00;101275.63;5053254;28;19934;-74
2022/09/18 10:24:55;;;;;;;;;;;;;;;10.12;100.00;101273.84;5053399;28;19935;-73
2022/09/18 10:27:20;;;;;;;;;;;;;;;10.16;100.00;101280.75;5053876;28;19977;-73
2022/09/18 10:29:46;;;;;;;;;;;;;;;10.17;100.00;101271.91;5070921;28;19932;-73
2022/09/18 10:32:12;;;;;;;;;;;;;;;10.22;100.00;101268.19;5040398;28;20350;-74
2022/09/18 10:34:48;;;;;;;;;;;;;;;10.27;100.00;101259.19;5057159;28;19997;-74
2022/09/18 10:37:27;;;;;;;;;;;;;;;10.35;100.00;101264.16;5058513;28;19929;-74
2022/09/18 10:39:53;;;;;;;;;;;;;;;10.39;100.00;101264.91;5049279;28;19932;-74
2022/09/18 10:42:20;;;;;;;;;;;;;;;10.41;100.00;101258.66;5057801;28;20092;-73
2022/09/18 10:44:50;;;;;;;;;;;;;;;10.46;100.00;101267.31;5058729;28;19924;-74
2022/09/18 10:47:15;;;;;;;;;;;;;;;10.52;100.00;101265.38;5058581;28;19924;-74
2022/09/18 10:49:51;;;;;;;;;;;;;;;10.59;100.00;101266.84;5058170;28;20592;-73
2022/09/18 10:52:28;;;;;;;;;;;;;;;10.64;100.00;101267.53;5057238;28;20014;-73
2022/09/18 10:55:00;;;;;;;;;;;;;;;10.73;100.00;101263.66;5057513;28;20357;-74
2022/09/18 10:57:27;;;;;;;;;;;;;;;10.82;100.00;101255.34;5057406;28;19990;-73
2022/09/18 10:59:52;;;;;;;;;;;;;;;10.89;100.00;101255.97;5056680;28;20791;-73
2022/09/18 11:02:18;;;;;;;;;;;;;;;10.97;100.00;101253.00;5058057;28;20053;-73
2022/09/18 11:04:47;;;;;;;;;;;;;;;11.06;100.00;101259.72;5048459;28;20698;-73
2022/09/18 11:07:13;;;;;;;;;;;;;;;11.16;100.00;101254.91;5058875;28;19987;-73
2022/09/18 11:09:39;;;;;;;;;;;;;;;11.22;100.00;101252.84;5040274;28;20455;-73
2022/09/18 11:12:04;;;;;;;;;;;;;;;11.30;100.00;101256.97;5055310;28;19929;-74
2022/09/18 11:14:31;;;;;;;;;;;;;;;11.35;100.00;101247.03;5056655;28;20421;-74
2022/09/18 11:16:57;;;;;;;;;;;;;;;11.40;100.00;101248.56;5056798;28;20019;-74
2022/09/18 11:19:33;;;;;;;;;;;;;;;11.47;100.00;101246.53;5056130;28;20014;-74
2022/09/18 11:22:02;;;;;;;;;;;;;;;11.53;100.00;101253.34;5042330;28;19937;-74
2022/09/18 11:24:32;;;;;;;;;;;;;;;11.57;100.00;101251.41;5057762;28;20349;-74
2022/09/18 11:27:01;;;;;;;;;;;;;;;11.59;100.00;101250.44;5056132;28;20352;-74
2022/09/18 11:29:31;;;;;;;;;;;;;;;11.64;100.00;101250.22;5056467;28;19925;-74
2022/09/18 11:32:19;;;;;;;;;;;;;;;11.66;100.00;101246.59;5057066;28;19928;-74
2022/09/18 11:34:51;;;;;;;;;;;;;;;11.73;100.00;101259.56;5059568;28;19974;-74
2022/09/18 11:37:42;;;;;;;;;;;;;;;11.78;100.00;101258.44;5057492;28;20391;-73
2022/09/18 11:40:16;;;;;;;;;;;;;;;11.86;100.00;101254.59;5052662;28;19954;-74
2022/09/18 11:42:45;;;;;;;;;;;;;;;11.89;100.00;101254.47;5048821;28;19925;-74
2022/09/18 11:45:20;;;;;;;;;;;;;;;11.90;100.00;101257.06;5049134;28;20741;-74
2022/09/18 11:47:46;;;;;;;;;;;;;;;11.88;100.00;101263.34;5058036;28;19951;-74
2022/09/18 11:50:22;;;;;;;;;;;;;;;11.82;100.00;101264.47;5040120;28;19939;-74
2022/09/18 11:52:48;;;;;;;;;;;;;;;11.68;100.00;101288.97;5056546;28;19925;-75
2022/09/18 11:55:16;;;;;;;;;;;;;;;11.46;100.00;101284.56;5056118;28;20643;-74
2022/09/18 11:58:12;;;;;;;;;;;;;;;11.24;100.00;101282.78;5056694;28;19924;-75
2022/09/18 12:00:42;;;;;;;;;;;;;;;11.06;100.00;101276.47;5021412;28;19932;-74
2022/09/18 12:03:15;;;;;;;;;;;;;;;10.95;100.00;101278.72;5056409;28;19936;-74
2022/09/18 12:05:51;;;;;;;;;;;;;;;10.85;100.00;101273.75;5056178;28;19932;-74
2022/09/18 12:08:34;;;;;;;;;;;;;;;10.81;100.00;101268.66;5055813;28;19929;-74
2022/09/18 12:11:15;;;;;;;;;;;;;;;10.80;100.00;101272.22;5059082;28;19925;-74
2022/09/18 12:13:45;;;;;;;;;;;;;;;10.78;100.00;101260.84;5059019;28;19928;-74
2022/09/18 12:16:30;;;;;;;;;;;;;;;10.79;100.00;101262.56;5057005;28;20454;-74
2022/09/18 12:19:14;;;;;;;;;;;;;;;10.82;100.00;101257.13;5058188;28;19932;-74
2022/09/18 12:21:50;;;;;;;;;;;;;;;10.84;100.00;101257.94;5040936;28;19928;-73
2022/09/18 12:24:16;;;;;;;;;;;;;;;10.86;100.00;101256.09;5054958;28;19924;-74
2022/09/18 12:26:53;;;;;;;;;;;;;;;10.90;100.00;101262.97;5056572;28;19928;-73
2022/09/18 12:29:31;;;;;;;;;;;;;;;10.95;100.00;101258.38;5056004;28;19927;-74
2022/09/18 12:32:15;;;;;;;;;;;;;;;11.01;100.00;101262.56;5055514;28;19928;-74
2022/09/18 12:34:47;;;;;;;;;;;;;;;11.07;100.00;101258.78;5057876;28;19950;-74
2022/09/18 12:37:22;;;;;;;;;;;;;;;11.11;100.00;101253.31;5055151;28;20422;-74
2022/09/18 12:39:56;;;;;;;;;;;;;;;11.17;100.00;101257.47;5057765;28;19951;-74